createdAt,value
2019-05-07T00:00:29.686Z,95.12
2019-05-07T00:01:34.151Z,95.76
2019-05-07T00:02:40.163Z,95.56
2019-05-07T00:03:43.268Z,95.56
2019-05-07T00:04:46.377Z,95.44
2019-05-07T00:05:49.179Z,95.19
2019-05-07T00:06:52.792Z,95.32
2019-05-07T00:07:55.794Z,95.32
2019-05-07T00:08:58.844Z,95.43
2019-05-07T00:10:04.070Z,95.41
2019-05-07T00:11:08.566Z,95.17
2019-05-07T00:12:12.593Z,95.17
2019-05-07T00:13:15.536Z,95.61
2019-05-07T00:14:18.312Z,95.29
2019-05-07T00:15:23.025Z,95.56
2019-05-07T00:16:26.409Z,95.35
2019-05-07T00:17:29.216Z,95.53
2019-05-07T00:18:32.452Z,95.57
2019-05-07T00:19:38.288Z,95.57
2019-05-07T00:20:42.387Z,95.54
2019-05-07T00:21:45.427Z,95.45
2019-05-07T00:22:48.664Z,95.45
2019-05-07T00:23:53.210Z,95.65
2019-05-07T00:24:56.469Z,95.73
2019-05-07T00:25:59.707Z,95.51
2019-05-07T00:27:02.942Z,95.33
2019-05-07T00:28:06.846Z,95.36
2019-05-07T00:29:09.927Z,95.49
2019-05-07T00:30:12.920Z,95.25
2019-05-07T00:31:16.080Z,95.48
2019-05-07T00:32:18.942Z,95.48
2019-05-07T00:33:22.683Z,95.31
2019-05-07T00:34:30.205Z,95.31
2019-05-07T00:35:42.789Z,95.27
2019-05-07T00:37:22.018Z,95.27
2019-05-07T00:38:28.130Z,95.10
2019-05-07T00:39:52.885Z,94.70
2019-05-07T00:41:09.368Z,95.09
2019-05-07T00:42:32.739Z,95.05
2019-05-07T00:43:37.805Z,94.97
2019-05-07T00:44:57.411Z,94.97
2019-05-07T00:46:14.975Z,94.75
2019-05-07T00:47:17.769Z,94.59
2019-05-07T00:48:20.564Z,94.77
2019-05-07T00:49:25.185Z,94.92
2019-05-07T00:50:33.136Z,94.90
2019-05-07T00:51:36.555Z,94.84
2019-05-07T00:52:39.738Z,95.04
2019-05-07T00:53:42.558Z,95.26
2019-05-07T00:54:45.349Z,95.10
2019-05-07T00:55:48.421Z,95.40
2019-05-07T00:56:52.099Z,95.40
2019-05-07T00:57:55.063Z,95.18
2019-05-07T00:58:57.865Z,95.51
2019-05-07T01:00:02.139Z,95.51
2019-05-07T01:01:06.118Z,95.80
2019-05-07T01:02:09.294Z,95.80
2019-05-07T01:03:12.815Z,95.80
2019-05-07T01:04:16.273Z,96.19
2019-05-07T01:05:20.003Z,96.20
2019-05-07T01:06:26.007Z,96.18
2019-05-07T01:07:27.929Z,96.58
2019-05-07T01:08:32.185Z,96.58
2019-05-07T01:09:35.428Z,96.34
2019-05-07T01:10:49.078Z,96.34
2019-05-07T01:11:43.095Z,96.81
2019-05-07T01:12:46.434Z,96.85
2019-05-07T01:13:51.878Z,96.59
2019-05-07T01:14:54.125Z,96.49
2019-05-07T01:15:56.931Z,96.49
2019-05-07T01:17:02.206Z,96.53
2019-05-07T01:18:04.724Z,96.79
2019-05-07T01:19:07.509Z,96.79
2019-05-07T01:20:12.584Z,96.90
2019-05-07T01:21:22.704Z,96.60
2019-05-07T01:22:25.481Z,96.80
2019-05-07T01:23:28.347Z,96.80
2019-05-07T01:24:32.218Z,96.76
2019-05-07T01:25:36.482Z,96.49
2019-05-07T01:26:42.397Z,96.49
2019-05-07T01:27:44.406Z,96.24
2019-05-07T01:29:06.352Z,96.22
2019-05-07T01:30:12.819Z,96.22
2019-05-07T01:31:14.971Z,95.80
2019-05-07T01:32:32.970Z,96.40
2019-05-07T01:33:46.876Z,96.15
2019-05-07T01:35:02.581Z,96.15
2019-05-07T01:36:17.695Z,95.88
2019-05-07T01:37:23.213Z,95.97
2019-05-07T01:38:28.443Z,95.55
2019-05-07T01:39:32.659Z,95.47
2019-05-07T01:40:36.080Z,95.47
2019-05-07T01:41:38.878Z,96.24
2019-05-07T01:42:42.313Z,96.24
2019-05-07T01:43:45.326Z,95.78
2019-05-07T01:44:48.393Z,95.90
2019-05-07T01:45:52.965Z,95.79
2019-05-07T01:46:55.661Z,95.49
2019-05-07T01:47:59.643Z,95.49
2019-05-07T01:49:03.073Z,95.76
2019-05-07T01:50:06.942Z,95.50
2019-05-07T01:51:10.018Z,95.50
2019-05-07T01:52:13.461Z,95.54
2019-05-07T01:53:16.318Z,95.49
2019-05-07T01:54:19.206Z,95.71
2019-05-07T01:55:24.619Z,95.97
2019-05-07T01:56:27.496Z,95.50
2019-05-07T01:57:32.450Z,95.39
2019-05-07T01:58:37.722Z,95.62
2019-05-07T01:59:42.458Z,95.28
2019-05-07T02:00:44.989Z,95.35
2019-05-07T02:01:49.041Z,95.35
2019-05-07T02:02:56.906Z,95.73
2019-05-07T02:04:12.766Z,95.73
2019-05-07T02:05:27.131Z,95.46
2019-05-07T02:06:40.162Z,95.51
2019-05-07T02:07:47.843Z,95.59
2019-05-07T02:09:27.372Z,95.69
2019-05-07T02:10:42.797Z,95.69
2019-05-07T02:11:47.035Z,95.53
2019-05-07T02:12:49.828Z,95.65
2019-05-07T02:13:53.011Z,95.65
2019-05-07T02:14:55.884Z,95.85
2019-05-07T02:16:02.935Z,95.99
2019-05-07T02:17:05.382Z,96.04
2019-05-07T02:18:08.241Z,95.93
2019-05-07T02:19:12.675Z,95.93
2019-05-07T02:20:16.318Z,95.94
2019-05-07T02:21:19.151Z,95.92
2019-05-07T02:22:22.669Z,95.92
2019-05-07T02:23:25.910Z,95.71
2019-05-07T02:24:28.769Z,95.71
2019-05-07T02:25:32.740Z,95.67
2019-05-07T02:26:35.838Z,95.98
2019-05-07T02:27:38.687Z,95.84
2019-05-07T02:28:42.638Z,95.84
2019-05-07T02:29:46.890Z,95.70
2019-05-07T02:30:49.726Z,95.83
2019-05-07T02:31:53.411Z,95.70
2019-05-07T02:32:56.204Z,95.90
2019-05-07T02:33:58.990Z,95.82
2019-05-07T02:35:05.384Z,95.64
2019-05-07T02:36:14.359Z,95.64
2019-05-07T02:37:19.224Z,95.81
2019-05-07T02:38:43.842Z,95.85
2019-05-07T02:39:53.106Z,95.29
2019-05-07T02:41:17.309Z,95.29
2019-05-07T02:42:23.796Z,95.63
2019-05-07T02:43:43.524Z,95.54
2019-05-07T02:45:04.616Z,95.77
2019-05-07T02:46:31.039Z,95.47
2019-05-07T02:47:27.965Z,95.47
2019-05-07T02:48:34.603Z,95.83
2019-05-07T02:49:53.651Z,95.88
2019-05-07T02:51:03.903Z,96.35
2019-05-07T02:52:14.581Z,95.92
2019-05-07T02:53:25.784Z,95.92
2019-05-07T02:54:47.564Z,95.71
2019-05-07T02:55:53.037Z,95.71
2019-05-07T02:56:55.817Z,95.99
2019-05-07T02:57:58.612Z,95.94
2019-05-07T02:59:04.058Z,95.96
2019-05-07T03:00:09.168Z,95.78
2019-05-07T03:01:13.903Z,96.32
2019-05-07T03:02:17.110Z,96.05
2019-05-07T03:03:19.926Z,96.21
2019-05-07T03:04:25.080Z,96.58
2019-05-07T03:05:27.314Z,96.58
2019-05-07T03:06:30.138Z,96.18
2019-05-07T03:07:33.758Z,96.18
2019-05-07T03:08:36.674Z,96.48
2019-05-07T03:09:42.822Z,96.05
2019-05-07T03:10:43.918Z,96.09
2019-05-07T03:11:46.771Z,96.56
2019-05-07T03:12:49.605Z,96.14
2019-05-07T03:13:53.690Z,96.59
2019-05-07T03:14:56.901Z,96.37
2019-05-07T03:16:03.540Z,96.37
2019-05-07T03:17:04.580Z,96.16
2019-05-07T03:18:07.374Z,96.51
2019-05-07T03:19:13.380Z,96.51
2019-05-07T03:20:26.670Z,96.49
2019-05-07T03:21:48.169Z,96.42
2019-05-07T03:22:53.810Z,95.76
2019-05-07T03:24:14.646Z,95.76
2019-05-07T03:25:23.129Z,96.31
2019-05-07T03:26:28.362Z,96.23
2019-05-07T03:27:34.220Z,96.23
2019-05-07T03:28:53.391Z,96.20
2019-05-07T03:30:04.462Z,96.36
2019-05-07T03:31:16.579Z,96.30
2019-05-07T03:32:40.242Z,96.68
2019-05-07T03:34:06.300Z,96.67
2019-05-07T03:35:37.224Z,97.35
2019-05-07T03:36:46.759Z,97.71
2019-05-07T03:37:50.366Z,97.83
2019-05-07T03:38:53.812Z,97.98
2019-05-07T03:39:57.164Z,97.89
2019-05-07T03:41:03.400Z,97.81
2019-05-07T03:42:04.933Z,98.21
2019-05-07T03:43:07.741Z,97.91
2019-05-07T03:44:44.465Z,97.74
2019-05-07T03:46:19.571Z,97.74
2019-05-07T03:47:26.462Z,98.40
2019-05-07T03:48:33.223Z,98.40
2019-05-07T03:49:35.971Z,98.69
2019-05-07T03:50:38.834Z,99.01
2019-05-07T03:51:44.185Z,99.01
2019-05-07T03:52:46.925Z,99.59
2019-05-07T03:53:49.879Z,99.38
2019-05-07T03:54:55.677Z,99.32
2019-05-07T03:55:58.565Z,99.76
2019-05-07T03:57:11.193Z,99.76
2019-05-07T03:58:14.247Z,99.56
2019-05-07T03:59:15.091Z,99.56
2019-05-07T04:00:18.288Z,99.38
2019-05-07T04:01:23.947Z,99.21
2019-05-07T04:02:37.152Z,99.37
2019-05-07T04:03:34.034Z,99.37
2019-05-07T04:04:35.962Z,99.33
2019-05-07T04:05:38.768Z,99.13
2019-05-07T04:06:43.563Z,99.35
2019-05-07T04:07:46.739Z,99.23
2019-05-07T04:08:49.618Z,99.19
2019-05-07T04:09:53.440Z,99.61
2019-05-07T04:10:56.468Z,99.85
2019-05-07T04:11:59.331Z,99.85
2019-05-07T04:13:04.462Z,99.42
2019-05-07T04:14:06.944Z,99.02
2019-05-07T04:15:09.709Z,99.10
2019-05-07T04:16:13.556Z,99.24
2019-05-07T04:17:22.246Z,98.95
2019-05-07T04:18:23.758Z,98.95
2019-05-07T04:19:26.186Z,98.83
2019-05-07T04:20:29.728Z,98.99
2019-05-07T04:21:34.442Z,98.12
2019-05-07T04:22:37.014Z,98.65
2019-05-07T04:23:39.871Z,98.16
2019-05-07T04:24:53.111Z,98.16
2019-05-07T04:26:09.089Z,98.53
2019-05-07T04:27:23.651Z,98.47
2019-05-07T04:28:43.783Z,98.16
2019-05-07T04:29:46.610Z,98.46
2019-05-07T04:30:49.433Z,97.49
2019-05-07T04:31:53.310Z,97.69
2019-05-07T04:32:58.362Z,97.86
2019-05-07T04:34:04.089Z,97.43
2019-05-07T04:35:15.097Z,97.43
2019-05-07T04:36:27.518Z,97.51
2019-05-07T04:37:32.971Z,97.51
2019-05-07T04:38:35.244Z,97.67
2019-05-07T04:39:42.326Z,97.67
2019-05-07T04:40:44.911Z,97.62
2019-05-07T04:41:47.683Z,97.27
2019-05-07T04:42:53.549Z,97.27
2019-05-07T04:43:54.926Z,97.51
2019-05-07T04:44:58.558Z,97.23
2019-05-07T04:46:03.163Z,97.23
2019-05-07T04:47:06.247Z,97.78
2019-05-07T04:48:09.060Z,97.29
2019-05-07T04:49:14.969Z,97.09
2019-05-07T04:50:34.753Z,97.16
2019-05-07T04:51:33.598Z,96.73
2019-05-07T04:52:36.994Z,96.82
2019-05-07T04:53:42.641Z,96.54
2019-05-07T04:54:44.312Z,96.54
2019-05-07T04:55:47.499Z,96.50
2019-05-07T04:56:53.433Z,96.56
2019-05-07T04:57:56.643Z,96.56
2019-05-07T04:59:03.673Z,96.34
2019-05-07T05:00:07.949Z,96.34
2019-05-07T05:01:13.817Z,96.27
2019-05-07T05:02:19.587Z,96.09
2019-05-07T05:03:30.616Z,96.64
2019-05-07T05:04:35.127Z,95.76
2019-05-07T05:05:38.048Z,95.96
2019-05-07T05:06:42.490Z,95.70
2019-05-07T05:07:45.310Z,95.89
2019-05-07T05:08:52.061Z,95.62
2019-05-07T05:09:53.393Z,96.00
2019-05-07T05:10:58.571Z,95.83
2019-05-07T05:12:02.707Z,95.35
2019-05-07T05:13:05.740Z,95.26
2019-05-07T05:14:08.644Z,95.42
2019-05-07T05:15:12.617Z,95.42
2019-05-07T05:16:25.939Z,95.18
2019-05-07T05:17:29.069Z,95.27
2019-05-07T05:18:32.927Z,95.07
2019-05-07T05:19:38.683Z,95.05
2019-05-07T05:20:47.514Z,94.89
2019-05-07T05:21:57.441Z,94.87
2019-05-07T05:24:22.129Z,93.80
2019-05-07T05:25:32.291Z,94.33
2019-05-07T05:26:35.190Z,94.32
2019-05-07T05:27:38.006Z,94.02
2019-05-07T05:28:41.931Z,94.13
2019-05-07T05:29:45.322Z,94.45
2019-05-07T05:34:24.819Z,93.82
2019-05-07T05:35:28.079Z,93.82
2019-05-07T05:36:33.693Z,93.75
2019-05-07T05:37:36.603Z,93.65
2019-05-07T05:38:42.406Z,93.50
2019-05-07T05:39:45.079Z,93.52
2019-05-07T05:40:47.933Z,93.52
2019-05-07T05:41:58.998Z,93.11
2019-05-07T05:43:14.400Z,93.13
2019-05-07T05:44:24.806Z,93.13
2019-05-07T05:45:42.607Z,93.06
2019-05-07T05:46:47.864Z,92.89
2019-05-07T05:48:01.947Z,93.02
2019-05-07T05:48:55.219Z,93.04
2019-05-07T05:50:01.981Z,93.36
2019-05-07T05:51:22.791Z,92.96
2019-05-07T05:52:44.652Z,92.96
2019-05-07T05:53:55.634Z,92.53
2019-05-07T05:55:05.475Z,92.55
2019-05-07T05:56:18.923Z,92.55
2019-05-07T05:57:42.411Z,92.37
2019-05-07T05:58:53.387Z,92.33
2019-05-07T06:00:17.878Z,92.88
2019-05-07T06:01:39.846Z,92.49
2019-05-07T06:03:14.716Z,92.37
2019-05-07T06:04:25.398Z,92.37
2019-05-07T06:05:44.205Z,91.81
2019-05-07T06:07:15.130Z,91.92
2019-05-07T06:08:28.087Z,91.27
2019-05-07T06:09:43.633Z,91.61
2019-05-07T06:10:59.801Z,91.39
2019-05-07T06:12:14.596Z,91.34
2019-05-07T06:13:32.254Z,91.08
2019-05-07T06:14:53.922Z,91.28
2019-05-07T06:16:14.125Z,91.28
2019-05-07T06:17:34.431Z,90.88
2019-05-07T06:18:56.223Z,90.59
2019-05-07T06:20:22.581Z,90.15
2019-05-07T06:21:42.410Z,90.33
2019-05-07T06:23:02.754Z,90.17
2019-05-07T06:24:08.745Z,89.52
2019-05-07T06:25:15.952Z,89.41
2019-05-07T06:26:19.752Z,89.54
2019-05-07T06:27:22.985Z,88.90
2019-05-07T06:28:26.489Z,88.85
2019-05-07T06:29:33.843Z,88.85
2019-05-07T06:30:39.060Z,88.31
2019-05-07T06:31:46.341Z,87.90
2019-05-07T06:32:49.260Z,87.34
2019-05-07T06:33:52.430Z,87.08
2019-05-07T06:35:06.486Z,87.29
2019-05-07T06:36:12.485Z,87.29
2019-05-07T06:37:15.152Z,86.87
2019-05-07T06:38:22.023Z,86.86
2019-05-07T06:39:28.417Z,86.86
2019-05-07T06:40:52.005Z,86.87
2019-05-07T06:42:12.759Z,85.86
2019-05-07T06:43:29.558Z,85.94
2019-05-07T06:44:32.436Z,85.80
2019-05-07T06:45:42.266Z,85.65
2019-05-07T06:46:45.669Z,85.65
2019-05-07T06:47:52.067Z,85.57
2019-05-07T06:48:54.957Z,84.88
2019-05-07T06:49:57.826Z,83.96
2019-05-07T06:51:03.100Z,83.51
2019-05-07T06:52:06.373Z,83.08
2019-05-07T06:53:11.895Z,83.08
2019-05-07T06:54:17.683Z,83.72
2019-05-07T06:55:22.758Z,83.72
2019-05-07T06:56:25.290Z,84.79
2019-05-07T06:57:29.257Z,84.79
2019-05-07T06:58:41.895Z,85.27
2019-05-07T06:59:49.013Z,85.34
2019-05-07T07:01:02.313Z,84.95
2019-05-07T07:02:22.581Z,83.67
2019-05-07T07:03:35.325Z,83.33
2019-05-07T07:05:02.683Z,83.33
2019-05-07T07:06:29.393Z,81.44
2019-05-07T07:07:52.659Z,81.44
2019-05-07T07:09:17.073Z,77.56
2019-05-07T07:10:38.973Z,78.47
2019-05-07T07:11:55.419Z,78.47
2019-05-07T07:12:58.690Z,77.62
2019-05-07T07:14:02.609Z,77.63
2019-05-07T07:15:08.735Z,77.24
2019-05-07T07:16:13.044Z,77.24
2019-05-07T07:17:17.764Z,74.62
2019-05-07T07:18:23.004Z,74.95
2019-05-07T07:19:27.127Z,73.94
2019-05-07T07:20:32.459Z,73.94
2019-05-07T07:21:35.553Z,72.54
2019-05-07T07:22:38.724Z,72.02
2019-05-07T07:23:42.992Z,70.94
2019-05-07T07:24:45.948Z,70.94
2019-05-07T07:25:49.046Z,70.72
2019-05-07T07:26:52.848Z,70.72
2019-05-07T07:27:58.912Z,69.17
2019-05-07T07:29:02.093Z,69.17
2019-05-07T07:30:14.424Z,67.55
2019-05-07T07:31:35.219Z,66.30
2019-05-07T07:32:39.298Z,67.82
2019-05-07T07:33:44.779Z,68.35
2019-05-07T07:34:50.394Z,70.16
2019-05-07T07:35:53.700Z,69.52
2019-05-07T07:39:52.356Z,69.27
2019-05-07T07:41:02.315Z,68.62
2019-05-07T07:42:06.416Z,68.62
2019-05-07T07:43:09.623Z,68.57
2019-05-07T07:44:13.328Z,66.03
2019-05-07T07:45:23.004Z,66.03
2019-05-07T07:46:28.813Z,66.55
2019-05-07T07:47:32.958Z,66.55
2019-05-07T07:48:37.942Z,66.94
2019-05-07T07:49:42.047Z,67.08
2019-05-07T07:50:44.957Z,65.19
2019-05-07T07:51:47.747Z,64.54
2019-05-07T07:52:52.953Z,64.41
2019-05-07T07:54:02.477Z,64.87
2019-05-07T07:55:05.430Z,64.87
2019-05-07T07:56:27.824Z,64.56
2019-05-07T07:57:43.831Z,64.79
2019-05-07T07:58:56.346Z,64.47
2019-05-07T08:00:15.477Z,64.62
2019-05-07T08:01:23.424Z,65.83
2019-05-07T08:02:54.983Z,66.00
2019-05-07T08:03:58.257Z,65.53
2019-05-07T08:05:02.133Z,65.51
2019-05-07T08:06:05.077Z,65.52
2019-05-07T08:07:17.117Z,65.11
2019-05-07T08:08:26.142Z,65.11
2019-05-07T08:09:32.415Z,66.12
2019-05-07T08:10:33.522Z,66.21
2019-05-07T08:11:36.330Z,65.32
2019-05-07T08:12:39.175Z,65.32
2019-05-07T08:13:42.546Z,65.31
2019-05-07T08:14:45.811Z,65.38
2019-05-07T08:15:48.603Z,63.82
2019-05-07T08:16:52.877Z,65.29
2019-05-07T08:17:55.767Z,65.38
2019-05-07T08:19:21.519Z,64.72
2019-05-07T08:20:22.921Z,64.72
2019-05-07T08:21:28.577Z,63.99
2019-05-07T08:22:35.022Z,63.32
2019-05-07T08:23:38.923Z,63.62
2019-05-07T08:24:42.588Z,63.90
2019-05-07T08:25:49.486Z,64.19
2019-05-07T08:26:52.349Z,64.30
2019-05-07T08:27:58.270Z,64.48
2019-05-07T08:29:02.906Z,64.48
2019-05-07T08:30:06.694Z,64.75
2019-05-07T08:31:29.110Z,64.66
2019-05-07T08:32:49.222Z,64.56
2019-05-07T08:34:02.108Z,64.30
2019-05-07T08:35:18.499Z,65.32
2019-05-07T08:36:22.601Z,65.05
2019-05-07T08:37:26.120Z,65.54
2019-05-07T08:38:32.780Z,65.54
2019-05-07T08:39:35.738Z,64.83
2019-05-07T08:40:38.961Z,65.30
2019-05-07T08:41:42.271Z,65.02
2019-05-07T08:42:47.391Z,64.91
2019-05-07T08:44:07.322Z,64.91
2019-05-07T08:45:13.017Z,64.69
2019-05-07T08:46:32.759Z,64.69
2019-05-07T08:47:48.270Z,63.78
2019-05-07T08:48:52.911Z,64.18
2019-05-07T08:49:55.874Z,63.88
2019-05-07T08:50:58.824Z,62.79
2019-05-07T08:52:03.568Z,62.85
2019-05-07T08:53:08.959Z,63.85
2019-05-07T08:54:12.362Z,64.30
2019-05-07T08:55:15.325Z,63.98
2019-05-07T08:56:22.446Z,63.67
2019-05-07T08:57:25.367Z,65.25
2019-05-07T08:58:28.291Z,65.25
2019-05-07T08:59:32.290Z,64.61
2019-05-07T09:00:35.082Z,64.98
2019-05-07T09:01:38.828Z,64.98
2019-05-07T09:02:42.060Z,64.67
2019-05-07T09:03:47.658Z,64.21
2019-05-07T09:04:53.190Z,64.01
2019-05-07T09:05:56.014Z,63.38
2019-05-07T09:07:02.765Z,63.38
2019-05-07T09:08:05.204Z,63.36
2019-05-07T09:09:08.583Z,64.39
2019-05-07T09:10:13.164Z,64.03
2019-05-07T09:11:16.326Z,63.95
2019-05-07T09:12:23.012Z,64.63
2019-05-07T09:13:25.692Z,64.12
2019-05-07T09:14:31.548Z,63.46
2019-05-07T09:15:34.291Z,63.64
2019-05-07T09:16:38.199Z,63.31
2019-05-07T09:17:43.533Z,63.71
2019-05-07T09:18:48.583Z,63.41
2019-05-07T09:19:54.696Z,63.31
2019-05-07T09:21:02.052Z,63.09
2019-05-07T09:22:04.822Z,63.09
2019-05-07T09:23:12.236Z,63.15
2019-05-07T09:24:15.200Z,62.81
2019-05-07T09:25:19.118Z,62.98
2019-05-07T09:26:26.049Z,62.25
2019-05-07T09:27:43.114Z,62.80
2019-05-07T09:28:55.893Z,62.67
2019-05-07T09:30:29.407Z,62.92
2019-05-07T09:31:52.524Z,61.51
2019-05-07T09:33:23.368Z,61.51
2019-05-07T09:34:28.152Z,62.13
2019-05-07T09:35:39.869Z,61.52
2019-05-07T09:36:51.917Z,61.52
2019-05-07T09:37:55.122Z,60.50
2019-05-07T09:39:02.805Z,60.50
2019-05-07T09:40:02.785Z,60.21
2019-05-07T09:41:06.465Z,59.96
2019-05-07T09:42:09.398Z,60.32
2019-05-07T09:43:12.256Z,60.37
2019-05-07T09:44:18.070Z,59.96
2019-05-07T09:45:22.488Z,59.96
2019-05-07T09:46:25.534Z,59.25
2019-05-07T09:47:29.112Z,59.48
2019-05-07T09:48:35.514Z,59.54
2019-05-07T09:49:43.062Z,59.27
2019-05-07T09:50:46.437Z,59.01
2019-05-07T09:51:51.955Z,58.44
2019-05-07T09:52:54.737Z,58.84
2019-05-07T09:53:58.018Z,58.39
2019-05-07T09:55:13.785Z,57.56
2019-05-07T09:56:08.065Z,58.61
2019-05-07T09:57:25.429Z,57.56
2019-05-07T09:58:15.522Z,57.74
2019-05-07T09:59:21.716Z,57.75
2019-05-07T10:00:24.813Z,58.03
2019-05-07T10:01:28.024Z,57.17
2019-05-07T10:02:32.028Z,56.62
2019-05-07T10:03:38.070Z,56.66
2019-05-07T10:04:41.789Z,54.42
2019-05-07T10:05:44.726Z,54.46
2019-05-07T10:06:51.922Z,53.43
2019-05-07T10:07:54.532Z,54.10
2019-05-07T10:09:04.171Z,52.38
2019-05-07T10:10:12.011Z,50.75
2019-05-07T10:11:19.246Z,50.52
2019-05-07T10:12:33.146Z,49.44
2019-05-07T10:14:08.772Z,49.51
2019-05-07T10:15:12.307Z,48.67
2019-05-07T10:16:22.453Z,48.13
2019-05-07T10:17:40.204Z,48.13
2019-05-07T10:18:48.331Z,47.83
2019-05-07T10:19:53.852Z,48.55
2019-05-07T10:20:57.326Z,48.38
2019-05-07T10:22:02.297Z,47.77
2019-05-07T10:23:14.161Z,47.86
2019-05-07T10:24:14.259Z,46.71
2019-05-07T10:25:19.769Z,47.40
2019-05-07T10:26:22.968Z,48.95
2019-05-07T10:27:25.752Z,49.42
2019-05-07T10:28:32.094Z,49.02
2019-05-07T10:29:38.631Z,50.07
2019-05-07T10:42:58.059Z,48.29
2019-05-07T10:44:02.574Z,48.70
2019-05-07T10:45:13.506Z,48.70
2019-05-07T10:46:38.956Z,50.10
2019-05-07T10:47:49.084Z,50.89
2019-05-07T10:49:22.693Z,50.74
2019-05-07T10:50:36.289Z,50.58
2019-05-07T10:51:32.311Z,50.14
2019-05-07T10:52:35.981Z,50.14
2019-05-07T10:53:42.382Z,50.05
2019-05-07T10:54:56.818Z,50.35
2019-05-07T10:55:51.470Z,50.92
2019-05-07T10:56:54.814Z,50.92
2019-05-07T10:57:57.759Z,52.03
2019-05-07T10:59:03.067Z,52.45
2019-05-07T11:00:07.664Z,54.36
2019-05-07T11:01:13.225Z,54.53
2019-05-07T11:02:21.976Z,54.53
2019-05-07T11:03:29.002Z,54.84
2019-05-07T11:04:40.204Z,54.84
2019-05-07T11:05:37.056Z,55.63
2019-05-07T11:06:41.737Z,54.19
2019-05-07T11:07:44.812Z,54.71
2019-05-07T11:08:47.710Z,54.51
2019-05-07T11:09:52.529Z,54.51
2019-05-07T11:10:55.475Z,55.26
2019-05-07T11:11:59.213Z,54.39
2019-05-07T11:13:02.643Z,54.39
2019-05-07T11:14:05.799Z,54.93
2019-05-07T11:15:08.618Z,54.71
2019-05-07T11:16:13.597Z,55.03
2019-05-07T11:17:33.007Z,54.52
2019-05-07T11:18:42.743Z,55.18
2019-05-07T11:19:45.581Z,55.47
2019-05-07T11:20:52.872Z,54.79
2019-05-07T11:21:55.145Z,55.53
2019-05-07T11:22:57.978Z,55.21
2019-05-07T11:24:03.223Z,55.49
2019-05-07T11:25:11.891Z,55.36
2019-05-07T11:26:22.117Z,55.64
2019-05-07T11:27:29.147Z,54.96
2019-05-07T11:28:33.810Z,54.57
2019-05-07T11:29:36.762Z,54.57
2019-05-07T11:30:39.561Z,54.32
2019-05-07T11:31:45.441Z,54.29
2019-05-07T11:32:48.683Z,53.99
2019-05-07T11:33:52.099Z,53.67
2019-05-07T11:34:57.473Z,54.67
2019-05-07T11:36:02.097Z,55.02
2019-05-07T11:37:05.688Z,54.93
2019-05-07T11:38:20.418Z,54.21
2019-05-07T11:39:14.775Z,54.83
2019-05-07T11:40:19.965Z,54.83
2019-05-07T11:41:33.248Z,54.54
2019-05-07T11:43:05.866Z,54.54
2019-05-07T11:44:17.036Z,54.16
2019-05-07T11:45:29.126Z,54.43
2019-05-07T11:46:44.407Z,54.46
2019-05-07T11:47:51.990Z,54.46
2019-05-07T11:49:04.707Z,53.99
2019-05-07T11:50:35.352Z,52.91
2019-05-07T11:51:46.247Z,53.20
2019-05-07T11:52:54.289Z,53.96
2019-05-07T11:54:12.608Z,53.14
2019-05-07T11:55:19.627Z,52.41
2019-05-07T11:56:22.454Z,53.10
2019-05-07T11:57:25.692Z,53.10
2019-05-07T11:58:28.514Z,52.26
2019-05-07T11:59:32.611Z,51.04
2019-05-07T12:00:43.566Z,51.43
2019-05-07T12:01:56.613Z,51.55
2019-05-07T12:02:59.526Z,52.24
2019-05-07T12:04:02.344Z,51.93
2019-05-07T12:05:05.947Z,51.93
2019-05-07T12:06:12.354Z,52.33
2019-05-07T12:07:18.462Z,52.60
2019-05-07T12:08:22.398Z,53.49
2019-05-07T12:09:26.336Z,53.49
2019-05-07T12:10:29.368Z,53.58
2019-05-07T12:11:32.413Z,53.49
2019-05-07T12:12:35.279Z,53.49
2019-05-07T12:13:38.209Z,53.62
2019-05-07T12:14:41.204Z,52.84
2019-05-07T12:15:43.988Z,52.84
2019-05-07T12:19:38.342Z,54.04
2019-05-07T12:20:41.858Z,54.46
2019-05-07T12:21:46.883Z,54.46
2019-05-07T12:22:51.965Z,53.27
2019-05-07T12:23:54.147Z,53.21
2019-05-07T12:24:57.022Z,53.21
2019-05-07T12:26:02.171Z,53.78
2019-05-07T12:27:05.133Z,53.78
2019-05-07T12:28:13.077Z,53.83
2019-05-07T12:29:15.321Z,53.73
2019-05-07T12:30:23.220Z,52.81
2019-05-07T12:31:43.725Z,52.08
2019-05-07T12:33:20.592Z,51.77
2019-05-07T12:34:32.565Z,53.10
2019-05-07T12:35:35.445Z,52.00
2019-05-07T12:36:42.077Z,52.41
2019-05-07T12:37:47.857Z,51.19
2019-05-07T12:38:49.734Z,51.19
2019-05-07T12:39:53.066Z,49.97
2019-05-07T12:40:55.935Z,50.44
2019-05-07T12:42:01.034Z,50.56
2019-05-07T12:43:04.683Z,50.22
2019-05-07T12:44:08.610Z,50.22
2019-05-07T12:45:14.097Z,50.25
2019-05-07T12:46:17.126Z,50.25
2019-05-07T12:47:25.422Z,49.94
2019-05-07T12:48:31.397Z,50.53
2019-05-07T12:49:34.230Z,49.30
2019-05-07T12:50:37.632Z,50.28
2019-05-07T12:52:03.874Z,50.28
2019-05-07T12:53:25.429Z,47.73
2019-05-07T12:54:53.072Z,47.47
2019-05-07T12:56:02.575Z,47.16
2019-05-07T12:57:09.131Z,47.96
2019-05-07T12:58:12.810Z,47.96
2019-05-07T12:59:15.753Z,47.26
2019-05-07T13:00:36.477Z,46.37
2019-05-07T13:02:21.674Z,47.11
2019-05-07T13:03:24.578Z,47.88
2019-05-07T13:04:32.441Z,48.50
2019-05-07T13:05:33.511Z,49.07
2019-05-07T13:06:46.015Z,49.51
2019-05-07T13:07:59.973Z,49.45
2019-05-07T13:09:02.638Z,48.86
2019-05-07T13:10:11.212Z,49.30
2019-05-07T13:11:14.184Z,49.30
2019-05-07T13:12:21.629Z,49.69
2019-05-07T13:13:23.234Z,49.13
2019-05-07T13:14:32.193Z,49.13
2019-05-07T13:15:35.372Z,49.72
2019-05-07T13:16:45.855Z,49.72
2019-05-07T13:17:51.955Z,50.55
2019-05-07T13:18:55.080Z,50.76
2019-05-07T13:19:58.640Z,50.47
2019-05-07T13:21:07.861Z,50.74
2019-05-07T13:22:13.012Z,51.48
2019-05-07T13:23:15.667Z,51.52
2019-05-07T13:24:22.856Z,51.01
2019-05-07T13:25:28.118Z,50.95
2019-05-07T13:26:32.225Z,50.95
2019-05-07T13:27:36.209Z,51.59
2019-05-07T13:28:44.477Z,50.81
2019-05-07T13:29:48.038Z,50.95
2019-05-07T13:30:53.865Z,50.84
2019-05-07T13:31:57.463Z,51.38
2019-05-07T13:33:03.415Z,50.70
2019-05-07T13:34:25.344Z,51.67
2019-05-07T13:35:28.543Z,51.64
2019-05-07T13:36:35.171Z,50.99
2019-05-07T13:37:47.321Z,50.99
2019-05-07T13:39:06.865Z,50.80
2019-05-07T13:40:18.469Z,51.11
2019-05-07T13:41:58.327Z,51.48
2019-05-07T13:43:07.955Z,50.97
2019-05-07T13:44:35.523Z,51.32
2019-05-07T13:45:50.497Z,51.32
2019-05-07T13:47:16.889Z,51.26
2019-05-07T13:48:22.529Z,51.85
2019-05-07T13:49:25.838Z,51.23
2019-05-07T13:50:29.240Z,51.23
2019-05-07T13:51:34.863Z,50.86
2019-05-07T13:52:39.922Z,51.06
2019-05-07T13:53:43.096Z,50.90
2019-05-07T13:54:47.780Z,50.28
2019-05-07T13:55:56.202Z,50.31
2019-05-07T13:57:06.954Z,50.16
2019-05-07T13:58:32.917Z,50.31
2019-05-07T13:59:42.479Z,49.95
2019-05-07T14:01:04.887Z,49.14
2019-05-07T14:02:13.817Z,49.14
2019-05-07T14:03:14.684Z,50.34
2019-05-07T14:04:22.333Z,50.07
2019-05-07T14:05:26.542Z,49.37
2019-05-07T14:06:43.537Z,49.18
2019-05-07T14:07:48.836Z,49.18
2019-05-07T14:08:52.174Z,49.18
2019-05-07T14:09:57.329Z,49.38
2019-05-07T14:11:02.644Z,49.15
2019-05-07T14:12:05.971Z,49.15
2019-05-07T14:13:16.688Z,49.43
2019-05-07T14:14:14.955Z,49.07
2019-05-07T14:15:17.798Z,49.07
2019-05-07T14:16:23.006Z,49.87
2019-05-07T14:17:25.467Z,50.19
2019-05-07T14:18:28.255Z,50.30
2019-05-07T14:19:36.518Z,50.30
2019-05-07T14:20:42.566Z,49.76
2019-05-07T14:21:45.431Z,49.76
2019-05-07T14:22:48.290Z,49.34
2019-05-07T14:23:52.132Z,48.06
2019-05-07T14:24:56.548Z,47.66
2019-05-07T14:26:05.210Z,47.66
2019-05-07T14:27:11.786Z,45.58
2019-05-07T14:28:14.697Z,45.58
2019-05-07T14:29:19.705Z,45.80
2019-05-07T14:30:24.725Z,46.19
2019-05-07T14:31:27.946Z,45.92
2019-05-07T14:32:42.063Z,46.11
2019-05-07T14:33:53.915Z,46.43
2019-05-07T14:35:13.013Z,45.65
2019-05-07T14:36:19.315Z,45.65
2019-05-07T14:37:32.515Z,47.03
2019-05-07T14:38:39.786Z,46.31
2019-05-07T14:39:46.262Z,46.31
2019-05-07T14:40:47.531Z,45.17
2019-05-07T14:41:52.866Z,44.90
2019-05-07T14:43:09.223Z,44.66
2019-05-07T14:44:22.291Z,43.84
2019-05-07T14:45:28.593Z,44.48
2019-05-07T14:46:44.473Z,44.18
2019-05-07T14:47:44.405Z,44.51
2019-05-07T14:48:45.855Z,44.51
2019-05-07T14:49:48.749Z,43.07
2019-05-07T14:50:58.196Z,44.12
2019-05-07T14:52:02.824Z,44.10